sensor_id;sensor_type;location;lat;lon;timestamp;P1;durP1;ratioP1;P2;durP2;ratioP2
50429;SDS011;36359;41.556;-8.418;2023-01-05T00:01:21;17.60;;;12.47;;
50429;SDS011;36359;41.556;-8.418;2023-01-05T00:03:47;16.90;;;11.30;;
50429;SDS011;36359;41.556;-8.418;2023-01-05T00:06:13;16.93;;;10.03;;
50429;SDS011;36359;41.556;-8.418;2023-01-05T00:08:41;17.10;;;11.23;;
50429;SDS011;36359;41.556;-8.418;2023-01-05T00:14:02;12.93;;;8.67;;
50429;SDS011;36359;41.556;-8.418;2023-01-05T00:16:47;14.17;;;9.53;;
50429;SDS011;36359;41.556;-8.418;2023-01-05T00:19:31;13.77;;;9.40;;
50429;SDS011;36359;41.556;-8.418;2023-01-05T00:24:55;14.60;;;8.47;;
50429;SDS011;36359;41.556;-8.418;2023-01-05T00:27:21;13.80;;;9.03;;
50429;SDS011;36359;41.556;-8.418;2023-01-05T00:29:47;15.90;;;10.07;;
50429;SDS011;36359;41.556;-8.418;2023-01-05T00:32:12;13.40;;;8.17;;
50429;SDS011;36359;41.556;-8.418;2023-01-05T00:37:09;13.33;;;8.30;;
50429;SDS011;36359;41.556;-8.418;2023-01-05T00:39:35;12.70;;;8.37;;
50429;SDS011;36359;41.556;-8.418;2023-01-05T00:42:01;16.30;;;10.03;;
50429;SDS011;36359;41.556;-8.418;2023-01-05T00:44:26;14.33;;;9.63;;
50429;SDS011;36359;41.556;-8.418;2023-01-05T00:46:52;15.23;;;9.87;;
50429;SDS011;36359;41.556;-8.418;2023-01-05T00:49:18;16.67;;;10.00;;
50429;SDS011;36359;41.556;-8.418;2023-01-05T00:51:44;16.30;;;10.57;;
50429;SDS011;36359;41.556;-8.418;2023-01-05T00:54:10;13.37;;;9.40;;
50429;SDS011;36359;41.556;-8.418;2023-01-05T00:56:36;15.23;;;10.50;;
50429;SDS011;36359;41.556;-8.418;2023-01-05T00:59:02;15.97;;;10.50;;
50429;SDS011;36359;41.556;-8.418;2023-01-05T01:01:28;16.20;;;10.80;;
50429;SDS011;36359;41.556;-8.418;2023-01-05T01:03:54;20.43;;;12.73;;
50429;SDS011;36359;41.556;-8.418;2023-01-05T01:06:20;19.37;;;12.50;;
50429;SDS011;36359;41.556;-8.418;2023-01-05T01:08:48;18.10;;;12.73;;
50429;SDS011;36359;41.556;-8.418;2023-01-05T01:11:17;24.50;;;18.17;;
50429;SDS011;36359;41.556;-8.418;2023-01-05T01:13:43;23.40;;;16.53;;
50429;SDS011;36359;41.556;-8.418;2023-01-05T01:16:13;23.60;;;14.60;;
50429;SDS011;36359;41.556;-8.418;2023-01-05T01:18:40;34.90;;;24.80;;
50429;SDS011;36359;41.556;-8.418;2023-01-05T01:21:06;50.23;;;37.50;;
50429;SDS011;36359;41.556;-8.418;2023-01-05T01:23:33;56.77;;;44.97;;
50429;SDS011;36359;41.556;-8.418;2023-01-05T01:26:02;61.77;;;46.80;;
50429;SDS011;36359;41.556;-8.418;2023-01-05T01:28:29;60.93;;;45.23;;
50429;SDS011;36359;41.556;-8.418;2023-01-05T01:30:55;50.27;;;39.93;;
50429;SDS011;36359;41.556;-8.418;2023-01-05T01:33:21;42.13;;;31.67;;
50429;SDS011;36359;41.556;-8.418;2023-01-05T01:35:47;25.33;;;17.50;;
50429;SDS011;36359;41.556;-8.418;2023-01-05T01:38:13;20.90;;;15.30;;
50429;SDS011;36359;41.556;-8.418;2023-01-05T01:40:39;21.83;;;16.30;;
50429;SDS011;36359;41.556;-8.418;2023-01-05T01:43:17;22.37;;;16.53;;
50429;SDS011;36359;41.556;-8.418;2023-01-05T01:46:03;21.23;;;15.83;;
50429;SDS011;36359;41.556;-8.418;2023-01-05T01:48:29;21.43;;;16.77;;
50429;SDS011;36359;41.556;-8.418;2023-01-05T01:50:57;23.90;;;17.30;;
50429;SDS011;36359;41.556;-8.418;2023-01-05T01:53:34;24.73;;;17.00;;
50429;SDS011;36359;41.556;-8.418;2023-01-05T01:56:05;22.83;;;17.10;;
50429;SDS011;36359;41.556;-8.418;2023-01-05T01:58:35;23.83;;;17.48;;
50429;SDS011;36359;41.556;-8.418;2023-01-05T02:01:01;25.27;;;17.37;;
50429;SDS011;36359;41.556;-8.418;2023-01-05T02:03:28;24.27;;;18.23;;
50429;SDS011;36359;41.556;-8.418;2023-01-05T02:05:56;24.33;;;17.80;;
50429;SDS011;36359;41.556;-8.418;2023-01-05T02:08:22;24.20;;;18.33;;
50429;SDS011;36359;41.556;-8.418;2023-01-05T02:31:03;50.07;;;35.57;;
50429;SDS011;36359;41.556;-8.418;2023-01-05T02:33:42;46.30;;;37.07;;
50429;SDS011;36359;41.556;-8.418;2023-01-05T02:39:16;44.97;;;35.10;;
50429;SDS011;36359;41.556;-8.418;2023-01-05T02:44:30;40.37;;;34.70;;
50429;SDS011;36359;41.556;-8.418;2023-01-05T02:46:59;44.93;;;35.20;;
50429;SDS011;36359;41.556;-8.418;2023-01-05T02:49:34;41.83;;;34.07;;
50429;SDS011;36359;41.556;-8.418;2023-01-05T02:52:05;41.93;;;33.60;;
50429;SDS011;36359;41.556;-8.418;2023-01-05T02:54:34;38.90;;;31.37;;
50429;SDS011;36359;41.556;-8.418;2023-01-05T02:57:17;41.43;;;33.40;;
50429;SDS011;36359;41.556;-8.418;2023-01-05T03:00:08;43.40;;;32.83;;
50429;SDS011;36359;41.556;-8.418;2023-01-05T03:02:35;40.67;;;32.03;;
50429;SDS011;36359;41.556;-8.418;2023-01-05T03:05:06;36.17;;;29.13;;
50429;SDS011;36359;41.556;-8.418;2023-01-05T03:07:36;37.80;;;27.97;;
50429;SDS011;36359;41.556;-8.418;2023-01-05T03:10:06;34.73;;;27.73;;
50429;SDS011;36359;41.556;-8.418;2023-01-05T03:12:54;34.43;;;28.90;;
50429;SDS011;36359;41.556;-8.418;2023-01-05T03:15:41;37.77;;;28.50;;
50429;SDS011;36359;41.556;-8.418;2023-01-05T03:18:10;38.20;;;29.57;;
50429;SDS011;36359;41.556;-8.418;2023-01-05T03:20:48;36.60;;;29.03;;
50429;SDS011;36359;41.556;-8.418;2023-01-05T03:23:17;35.63;;;29.40;;
50429;SDS011;36359;41.556;-8.418;2023-01-05T03:26:04;34.47;;;27.53;;
50429;SDS011;36359;41.556;-8.418;2023-01-05T03:29:00;31.87;;;24.10;;
50429;SDS011;36359;41.556;-8.418;2023-01-05T03:32:04;32.87;;;24.67;;
50429;SDS011;36359;41.556;-8.418;2023-01-05T03:35:04;27.48;;;23.20;;
50429;SDS011;36359;41.556;-8.418;2023-01-05T03:37:56;31.60;;;23.67;;
50429;SDS011;36359;41.556;-8.418;2023-01-05T03:40:30;28.83;;;22.13;;
50429;SDS011;36359;41.556;-8.418;2023-01-05T03:42:58;32.23;;;23.13;;
50429;SDS011;36359;41.556;-8.418;2023-01-05T03:45:30;31.37;;;24.17;;
50429;SDS011;36359;41.556;-8.418;2023-01-05T03:48:06;32.67;;;23.80;;
50429;SDS011;36359;41.556;-8.418;2023-01-05T03:50:32;32.47;;;24.73;;
50429;SDS011;36359;41.556;-8.418;2023-01-05T03:52:59;30.23;;;23.30;;
50429;SDS011;36359;41.556;-8.418;2023-01-05T03:55:26;28.20;;;21.07;;
50429;SDS011;36359;41.556;-8.418;2023-01-05T03:57:52;26.77;;;20.70;;
50429;SDS011;36359;41.556;-8.418;2023-01-05T04:00:19;24.77;;;18.63;;
50429;SDS011;36359;41.556;-8.418;2023-01-05T04:02:53;26.23;;;20.77;;
50429;SDS011;36359;41.556;-8.418;2023-01-05T04:05:20;25.57;;;19.73;;
50429;SDS011;36359;41.556;-8.418;2023-01-05T04:07:46;28.93;;;20.03;;
50429;SDS011;36359;41.556;-8.418;2023-01-05T04:10:12;30.03;;;22.67;;
50429;SDS011;36359;41.556;-8.418;2023-01-05T04:12:40;30.17;;;23.47;;
50429;SDS011;36359;41.556;-8.418;2023-01-05T04:15:06;27.30;;;22.50;;
50429;SDS011;36359;41.556;-8.418;2023-01-05T04:17:33;30.90;;;22.47;;
50429;SDS011;36359;41.556;-8.418;2023-01-05T04:19:59;28.60;;;21.67;;
50429;SDS011;36359;41.556;-8.418;2023-01-05T04:22:25;31.23;;;23.50;;
50429;SDS011;36359;41.556;-8.418;2023-01-05T04:24:52;28.07;;;21.53;;
50429;SDS011;36359;41.556;-8.418;2023-01-05T04:27:18;30.73;;;21.87;;
50429;SDS011;36359;41.556;-8.418;2023-01-05T04:29:45;29.90;;;23.13;;
50429;SDS011;36359;41.556;-8.418;2023-01-05T04:32:11;30.53;;;24.03;;
50429;SDS011;36359;41.556;-8.418;2023-01-05T04:34:37;30.13;;;24.07;;
50429;SDS011;36359;41.556;-8.418;2023-01-05T04:37:03;32.43;;;26.27;;
50429;SDS011;36359;41.556;-8.418;2023-01-05T04:39:30;38.53;;;25.63;;
50429;SDS011;36359;41.556;-8.418;2023-01-05T04:41:56;75.10;;;31.30;;
50429;SDS011;36359;41.556;-8.418;2023-01-05T04:44:23;44.87;;;29.03;;
50429;SDS011;36359;41.556;-8.418;2023-01-05T04:46:49;32.40;;;28.07;;
50429;SDS011;36359;41.556;-8.418;2023-01-05T04:49:16;32.43;;;26.73;;
50429;SDS011;36359;41.556;-8.418;2023-01-05T04:51:47;30.17;;;26.35;;
50429;SDS011;36359;41.556;-8.418;2023-01-05T04:54:12;28.00;;;22.90;;
50429;SDS011;36359;41.556;-8.418;2023-01-05T04:56:39;27.67;;;21.67;;
50429;SDS011;36359;41.556;-8.418;2023-01-05T04:59:06;28.47;;;21.67;;
50429;SDS011;36359;41.556;-8.418;2023-01-05T05:01:34;26.13;;;20.17;;
50429;SDS011;36359;41.556;-8.418;2023-01-05T05:04:00;22.77;;;18.47;;
50429;SDS011;36359;41.556;-8.418;2023-01-05T05:06:26;19.33;;;15.57;;
50429;SDS011;36359;41.556;-8.418;2023-01-05T05:08:53;21.40;;;15.43;;
50429;SDS011;36359;41.556;-8.418;2023-01-05T05:11:21;18.83;;;14.67;;
50429;SDS011;36359;41.556;-8.418;2023-01-05T05:13:49;21.43;;;14.93;;
50429;SDS011;36359;41.556;-8.418;2023-01-05T05:16:14;21.07;;;15.23;;
50429;SDS011;36359;41.556;-8.418;2023-01-05T05:18:43;22.33;;;17.37;;
50429;SDS011;36359;41.556;-8.418;2023-01-05T05:23:39;26.10;;;20.07;;
50429;SDS011;36359;41.556;-8.418;2023-01-05T05:26:05;28.10;;;21.87;;
50429;SDS011;36359;41.556;-8.418;2023-01-05T05:28:32;28.20;;;22.40;;
50429;SDS011;36359;41.556;-8.418;2023-01-05T05:30:58;27.27;;;22.73;;
50429;SDS011;36359;41.556;-8.418;2023-01-05T05:33:24;27.30;;;22.70;;
50429;SDS011;36359;41.556;-8.418;2023-01-05T05:35:50;26.57;;;23.27;;
50429;SDS011;36359;41.556;-8.418;2023-01-05T05:38:16;25.63;;;21.43;;
50429;SDS011;36359;41.556;-8.418;2023-01-05T05:40:42;29.33;;;21.73;;
50429;SDS011;36359;41.556;-8.418;2023-01-05T05:43:08;29.90;;;22.43;;
50429;SDS011;36359;41.556;-8.418;2023-01-05T05:45:34;26.90;;;21.40;;
50429;SDS011;36359;41.556;-8.418;2023-01-05T05:47:59;29.23;;;22.87;;
50429;SDS011;36359;41.556;-8.418;2023-01-05T05:50:26;28.60;;;21.87;;
50429;SDS011;36359;41.556;-8.418;2023-01-05T05:52:51;28.33;;;22.47;;
50429;SDS011;36359;41.556;-8.418;2023-01-05T05:55:17;25.97;;;21.33;;
50429;SDS011;36359;41.556;-8.418;2023-01-05T05:57:43;25.97;;;20.20;;
50429;SDS011;36359;41.556;-8.418;2023-01-05T06:00:09;25.63;;;19.27;;
50429;SDS011;36359;41.556;-8.418;2023-01-05T06:02:38;24.40;;;18.70;;
50429;SDS011;36359;41.556;-8.418;2023-01-05T06:05:04;22.57;;;18.77;;
50429;SDS011;36359;41.556;-8.418;2023-01-05T06:07:31;26.13;;;20.23;;
50429;SDS011;36359;41.556;-8.418;2023-01-05T06:09:56;22.67;;;18.07;;
50429;SDS011;36359;41.556;-8.418;2023-01-05T06:12:22;24.53;;;19.43;;
50429;SDS011;36359;41.556;-8.418;2023-01-05T06:14:48;24.83;;;18.23;;
50429;SDS011;36359;41.556;-8.418;2023-01-05T06:17:13;23.10;;;18.07;;
50429;SDS011;36359;41.556;-8.418;2023-01-05T06:19:39;20.80;;;16.20;;
50429;SDS011;36359;41.556;-8.418;2023-01-05T06:22:05;18.90;;;14.70;;
50429;SDS011;36359;41.556;-8.418;2023-01-05T06:24:31;19.87;;;15.03;;
50429;SDS011;36359;41.556;-8.418;2023-01-05T06:26:56;17.33;;;13.17;;
50429;SDS011;36359;41.556;-8.418;2023-01-05T06:29:22;16.57;;;11.77;;
50429;SDS011;36359;41.556;-8.418;2023-01-05T06:31:48;12.93;;;9.53;;
50429;SDS011;36359;41.556;-8.418;2023-01-05T06:34:13;10.70;;;9.20;;
50429;SDS011;36359;41.556;-8.418;2023-01-05T06:36:39;11.43;;;9.47;;
50429;SDS011;36359;41.556;-8.418;2023-01-05T06:39:05;10.90;;;8.30;;
50429;SDS011;36359;41.556;-8.418;2023-01-05T06:41:31;10.50;;;8.33;;
50429;SDS011;36359;41.556;-8.418;2023-01-05T06:43:59;10.00;;;8.10;;
50429;SDS011;36359;41.556;-8.418;2023-01-05T06:46:25;10.33;;;8.13;;
50429;SDS011;36359;41.556;-8.418;2023-01-05T06:48:51;13.83;;;9.00;;
50429;SDS011;36359;41.556;-8.418;2023-01-05T06:51:17;16.03;;;10.93;;
50429;SDS011;36359;41.556;-8.418;2023-01-05T06:53:43;12.10;;;9.37;;
50429;SDS011;36359;41.556;-8.418;2023-01-05T06:56:08;14.93;;;9.10;;
50429;SDS011;36359;41.556;-8.418;2023-01-05T06:58:34;11.97;;;8.97;;
50429;SDS011;36359;41.556;-8.418;2023-01-05T07:01:00;13.17;;;10.03;;
50429;SDS011;36359;41.556;-8.418;2023-01-05T07:03:26;18.87;;;13.90;;
50429;SDS011;36359;41.556;-8.418;2023-01-05T07:05:51;16.47;;;14.07;;
50429;SDS011;36359;41.556;-8.418;2023-01-05T07:08:17;16.90;;;13.03;;
50429;SDS011;36359;41.556;-8.418;2023-01-05T07:10:43;18.50;;;13.53;;
50429;SDS011;36359;41.556;-8.418;2023-01-05T07:13:09;17.80;;;14.10;;
50429;SDS011;36359;41.556;-8.418;2023-01-05T07:15:35;22.17;;;14.47;;
50429;SDS011;36359;41.556;-8.418;2023-01-05T07:18:00;18.67;;;13.53;;
50429;SDS011;36359;41.556;-8.418;2023-01-05T07:20:26;17.90;;;14.40;;
50429;SDS011;36359;41.556;-8.418;2023-01-05T07:22:52;16.27;;;13.13;;
50429;SDS011;36359;41.556;-8.418;2023-01-05T07:25:18;16.33;;;13.27;;
50429;SDS011;36359;41.556;-8.418;2023-01-05T07:27:43;18.90;;;14.00;;
50429;SDS011;36359;41.556;-8.418;2023-01-05T07:32:40;17.43;;;12.77;;
50429;SDS011;36359;41.556;-8.418;2023-01-05T07:35:06;18.53;;;13.23;;
50429;SDS011;36359;41.556;-8.418;2023-01-05T07:37:31;17.00;;;11.80;;
50429;SDS011;36359;41.556;-8.418;2023-01-05T07:39:57;15.10;;;11.30;;
50429;SDS011;36359;41.556;-8.418;2023-01-05T07:42:23;13.97;;;11.07;;
50429;SDS011;36359;41.556;-8.418;2023-01-05T07:44:50;14.83;;;9.97;;
50429;SDS011;36359;41.556;-8.418;2023-01-05T07:47:16;15.57;;;9.77;;
50429;SDS011;36359;41.556;-8.418;2023-01-05T07:49:43;14.53;;;8.97;;
50429;SDS011;36359;41.556;-8.418;2023-01-05T07:52:08;13.70;;;8.87;;
50429;SDS011;36359;41.556;-8.418;2023-01-05T07:54:34;12.53;;;9.93;;
50429;SDS011;36359;41.556;-8.418;2023-01-05T07:57:00;17.17;;;9.70;;
50429;SDS011;36359;41.556;-8.418;2023-01-05T07:59:25;17.67;;;12.37;;
50429;SDS011;36359;41.556;-8.418;2023-01-05T08:01:51;15.97;;;12.87;;
50429;SDS011;36359;41.556;-8.418;2023-01-05T08:04:17;25.63;;;21.37;;
50429;SDS011;36359;41.556;-8.418;2023-01-05T08:06:43;32.40;;;25.70;;
50429;SDS011;36359;41.556;-8.418;2023-01-05T08:09:09;25.90;;;19.30;;
50429;SDS011;36359;41.556;-8.418;2023-01-05T08:11:53;17.07;;;11.60;;
50429;SDS011;36359;41.556;-8.418;2023-01-05T08:14:19;16.47;;;10.13;;
50429;SDS011;36359;41.556;-8.418;2023-01-05T08:16:45;15.37;;;9.80;;
50429;SDS011;36359;41.556;-8.418;2023-01-05T08:19:11;22.93;;;18.30;;
50429;SDS011;36359;41.556;-8.418;2023-01-05T08:21:37;27.70;;;23.43;;
50429;SDS011;36359;41.556;-8.418;2023-01-05T08:24:04;26.63;;;22.37;;
50429;SDS011;36359;41.556;-8.418;2023-01-05T08:26:32;29.57;;;23.80;;
50429;SDS011;36359;41.556;-8.418;2023-01-05T08:28:59;28.43;;;23.97;;
50429;SDS011;36359;41.556;-8.418;2023-01-05T08:31:26;29.37;;;23.77;;
50429;SDS011;36359;41.556;-8.418;2023-01-05T08:33:54;28.47;;;21.43;;
50429;SDS011;36359;41.556;-8.418;2023-01-05T08:36:22;29.10;;;23.27;;
50429;SDS011;36359;41.556;-8.418;2023-01-05T08:38:51;31.10;;;23.83;;
50429;SDS011;36359;41.556;-8.418;2023-01-05T08:41:20;26.73;;;22.57;;
50429;SDS011;36359;41.556;-8.418;2023-01-05T08:43:51;30.77;;;24.93;;
50429;SDS011;36359;41.556;-8.418;2023-01-05T08:46:19;28.13;;;23.27;;
50429;SDS011;36359;41.556;-8.418;2023-01-05T08:48:47;28.87;;;22.87;;
50429;SDS011;36359;41.556;-8.418;2023-01-05T08:51:14;29.30;;;23.97;;
50429;SDS011;36359;41.556;-8.418;2023-01-05T08:53:40;34.47;;;26.00;;
50429;SDS011;36359;41.556;-8.418;2023-01-05T08:56:06;30.83;;;25.97;;
50429;SDS011;36359;41.556;-8.418;2023-01-05T08:58:33;31.73;;;23.60;;
50429;SDS011;36359;41.556;-8.418;2023-01-05T09:00:59;27.77;;;23.20;;
50429;SDS011;36359;41.556;-8.418;2023-01-05T09:03:24;26.10;;;22.80;;
50429;SDS011;36359;41.556;-8.418;2023-01-05T09:05:51;29.07;;;22.63;;
50429;SDS011;36359;41.556;-8.418;2023-01-05T09:08:18;27.80;;;18.27;;
50429;SDS011;36359;41.556;-8.418;2023-01-05T09:10:44;21.90;;;16.67;;
50429;SDS011;36359;41.556;-8.418;2023-01-05T09:13:10;23.43;;;15.67;;
50429;SDS011;36359;41.556;-8.418;2023-01-05T09:15:36;20.80;;;15.67;;
50429;SDS011;36359;41.556;-8.418;2023-01-05T09:18:02;22.13;;;13.33;;
50429;SDS011;36359;41.556;-8.418;2023-01-05T09:20:30;18.33;;;12.37;;
50429;SDS011;36359;41.556;-8.418;2023-01-05T09:22:56;17.67;;;11.53;;
50429;SDS011;36359;41.556;-8.418;2023-01-05T09:25:23;14.43;;;10.00;;
50429;SDS011;36359;41.556;-8.418;2023-01-05T09:27:49;17.03;;;10.73;;
50429;SDS011;36359;41.556;-8.418;2023-01-05T09:30:15;16.37;;;10.90;;
50429;SDS011;36359;41.556;-8.418;2023-01-05T09:32:41;128.67;;;58.57;;
50429;SDS011;36359;41.556;-8.418;2023-01-05T09:35:07;182.67;;;87.30;;
50429;SDS011;36359;41.556;-8.418;2023-01-05T09:37:33;140.03;;;80.23;;
50429;SDS011;36359;41.556;-8.418;2023-01-05T09:40:00;158.97;;;90.03;;
50429;SDS011;36359;41.556;-8.418;2023-01-05T09:42:25;95.40;;;56.53;;
50429;SDS011;36359;41.556;-8.418;2023-01-05T09:44:58;56.15;;;30.50;;
50429;SDS011;36359;41.556;-8.418;2023-01-05T09:47:38;40.13;;;23.57;;
50429;SDS011;36359;41.556;-8.418;2023-01-05T09:50:12;32.80;;;19.80;;
50429;SDS011;36359;41.556;-8.418;2023-01-05T09:52:43;38.20;;;22.77;;
50429;SDS011;36359;41.556;-8.418;2023-01-05T09:55:16;31.37;;;18.97;;
50429;SDS011;36359;41.556;-8.418;2023-01-05T10:00:34;44.38;;;26.52;;
50429;SDS011;36359;41.556;-8.418;2023-01-05T10:03:08;43.20;;;27.77;;
50429;SDS011;36359;41.556;-8.418;2023-01-05T10:05:41;48.90;;;30.43;;
50429;SDS011;36359;41.556;-8.418;2023-01-05T10:10:57;27.10;;;17.90;;
50429;SDS011;36359;41.556;-8.418;2023-01-05T10:19:13;48.53;;;29.77;;
50429;SDS011;36359;41.556;-8.418;2023-01-05T10:27:18;31.13;;;21.93;;
50429;SDS011;36359;41.556;-8.418;2023-01-05T10:30:14;30.03;;;21.77;;
50429;SDS011;36359;41.556;-8.418;2023-01-05T10:35:40;38.72;;;30.65;;
50429;SDS011;36359;41.556;-8.418;2023-01-05T10:38:14;38.22;;;28.52;;
50429;SDS011;36359;41.556;-8.418;2023-01-05T10:46:46;28.50;;;23.85;;
50429;SDS011;36359;41.556;-8.418;2023-01-05T10:49:18;26.73;;;22.10;;
50429;SDS011;36359;41.556;-8.418;2023-01-05T10:51:58;38.22;;;24.25;;
50429;SDS011;36359;41.556;-8.418;2023-01-05T10:55:10;33.42;;;21.75;;
50429;SDS011;36359;41.556;-8.418;2023-01-05T10:57:29;27.35;;;20.75;;
50429;SDS011;36359;41.556;-8.418;2023-01-05T11:00:21;27.15;;;20.58;;
50429;SDS011;36359;41.556;-8.418;2023-01-05T11:02:48;29.90;;;19.53;;
50429;SDS011;36359;41.556;-8.418;2023-01-05T11:08:13;35.20;;;25.50;;
50429;SDS011;36359;41.556;-8.418;2023-01-05T11:10:55;30.70;;;21.50;;
50429;SDS011;36359;41.556;-8.418;2023-01-05T11:16:17;29.00;;;23.88;;
50429;SDS011;36359;41.556;-8.418;2023-01-05T11:18:49;31.50;;;21.07;;
50429;SDS011;36359;41.556;-8.418;2023-01-05T11:24:00;28.20;;;19.92;;
50429;SDS011;36359;41.556;-8.418;2023-01-05T11:26:31;28.97;;;20.47;;
50429;SDS011;36359;41.556;-8.418;2023-01-05T11:36:54;49.72;;;30.60;;
50429;SDS011;36359;41.556;-8.418;2023-01-05T11:39:26;42.90;;;28.02;;
50429;SDS011;36359;41.556;-8.418;2023-01-05T11:42:06;37.53;;;27.23;;
50429;SDS011;36359;41.556;-8.418;2023-01-05T11:44:34;31.17;;;23.38;;
50429;SDS011;36359;41.556;-8.418;2023-01-05T11:47:01;30.50;;;23.88;;
50429;SDS011;36359;41.556;-8.418;2023-01-05T11:49:29;38.95;;;27.38;;
50429;SDS011;36359;41.556;-8.418;2023-01-05T11:51:54;36.28;;;23.95;;
50429;SDS011;36359;41.556;-8.418;2023-01-05T11:54:36;30.73;;;20.55;;
50429;SDS011;36359;41.556;-8.418;2023-01-05T11:57:14;24.13;;;18.27;;
50429;SDS011;36359;41.556;-8.418;2023-01-05T11:59:43;28.92;;;20.85;;
50429;SDS011;36359;41.556;-8.418;2023-01-05T12:02:26;31.70;;;23.58;;
50429;SDS011;36359;41.556;-8.418;2023-01-05T12:08:02;21.48;;;17.17;;
50429;SDS011;36359;41.556;-8.418;2023-01-05T12:21:41;22.08;;;16.70;;
50429;SDS011;36359;41.556;-8.418;2023-01-05T12:38:24;13.38;;;10.00;;
50429;SDS011;36359;41.556;-8.418;2023-01-05T12:49:26;21.63;;;13.45;;
50429;SDS011;36359;41.556;-8.418;2023-01-05T12:52:47;22.70;;;15.98;;
50429;SDS011;36359;41.556;-8.418;2023-01-05T12:57:46;28.20;;;19.48;;
50429;SDS011;36359;41.556;-8.418;2023-01-05T13:00:21;20.85;;;13.55;;
50429;SDS011;36359;41.556;-8.418;2023-01-05T13:02:56;21.10;;;13.82;;
50429;SDS011;36359;41.556;-8.418;2023-01-05T13:07:59;22.92;;;17.05;;
50429;SDS011;36359;41.556;-8.418;2023-01-05T13:13:02;25.02;;;17.58;;
50429;SDS011;36359;41.556;-8.418;2023-01-05T13:15:44;23.80;;;17.30;;
50429;SDS011;36359;41.556;-8.418;2023-01-05T13:18:16;22.58;;;14.38;;
50429;SDS011;36359;41.556;-8.418;2023-01-05T13:20:53;21.05;;;15.32;;
50429;SDS011;36359;41.556;-8.418;2023-01-05T13:23:24;24.55;;;16.02;;
50429;SDS011;36359;41.556;-8.418;2023-01-05T13:25:55;19.70;;;13.57;;
50429;SDS011;36359;41.556;-8.418;2023-01-05T13:28:28;19.55;;;12.45;;
50429;SDS011;36359;41.556;-8.418;2023-01-05T13:39:33;22.33;;;14.13;;
50429;SDS011;36359;41.556;-8.418;2023-01-05T13:55:34;18.00;;;13.43;;
50429;SDS011;36359;41.556;-8.418;2023-01-05T13:58:05;18.17;;;13.73;;
50429;SDS011;36359;41.556;-8.418;2023-01-05T14:00:42;23.38;;;15.45;;
50429;SDS011;36359;41.556;-8.418;2023-01-05T14:03:26;22.15;;;15.00;;
50429;SDS011;36359;41.556;-8.418;2023-01-05T14:05:56;23.17;;;17.20;;
50429;SDS011;36359;41.556;-8.418;2023-01-05T14:08:29;39.67;;;27.35;;
50429;SDS011;36359;41.556;-8.418;2023-01-05T14:13:40;19.35;;;15.10;;
50429;SDS011;36359;41.556;-8.418;2023-01-05T14:32:11;19.38;;;15.18;;
50429;SDS011;36359;41.556;-8.418;2023-01-05T14:34:46;23.83;;;14.20;;
50429;SDS011;36359;41.556;-8.418;2023-01-05T14:37:27;20.60;;;14.18;;
50429;SDS011;36359;41.556;-8.418;2023-01-05T14:43:04;19.48;;;12.18;;
50429;SDS011;36359;41.556;-8.418;2023-01-05T14:45:55;14.48;;;10.10;;
50429;SDS011;36359;41.556;-8.418;2023-01-05T14:48:46;17.05;;;10.52;;
50429;SDS011;36359;41.556;-8.418;2023-01-05T14:51:24;15.63;;;10.63;;
50429;SDS011;36359;41.556;-8.418;2023-01-05T14:53:55;17.10;;;9.50;;
50429;SDS011;36359;41.556;-8.418;2023-01-05T14:56:29;12.70;;;6.97;;
50429;SDS011;36359;41.556;-8.418;2023-01-05T15:02:03;16.67;;;10.43;;
50429;SDS011;36359;41.556;-8.418;2023-01-05T15:04:41;18.13;;;10.98;;
50429;SDS011;36359;41.556;-8.418;2023-01-05T15:07:19;17.58;;;10.95;;
50429;SDS011;36359;41.556;-8.418;2023-01-05T15:31:48;15.00;;;8.98;;
50429;SDS011;36359;41.556;-8.418;2023-01-05T15:37:37;15.05;;;9.40;;
50429;SDS011;36359;41.556;-8.418;2023-01-05T15:40:06;14.48;;;9.25;;
50429;SDS011;36359;41.556;-8.418;2023-01-05T15:43:01;14.05;;;10.07;;
50429;SDS011;36359;41.556;-8.418;2023-01-05T15:45:33;13.80;;;9.10;;
50429;SDS011;36359;41.556;-8.418;2023-01-05T15:48:04;14.27;;;9.23;;
50429;SDS011;36359;41.556;-8.418;2023-01-05T15:50:38;13.30;;;8.43;;
50429;SDS011;36359;41.556;-8.418;2023-01-05T15:53:21;12.80;;;8.63;;
50429;SDS011;36359;41.556;-8.418;2023-01-05T15:55:51;19.17;;;10.93;;
50429;SDS011;36359;41.556;-8.418;2023-01-05T15:58:18;17.33;;;10.63;;
50429;SDS011;36359;41.556;-8.418;2023-01-05T16:00:58;16.15;;;10.27;;
50429;SDS011;36359;41.556;-8.418;2023-01-05T16:03:29;13.75;;;9.35;;
50429;SDS011;36359;41.556;-8.418;2023-01-05T16:05:58;13.65;;;8.15;;
50429;SDS011;36359;41.556;-8.418;2023-01-05T16:08:26;13.63;;;8.13;;
50429;SDS011;36359;41.556;-8.418;2023-01-05T16:10:55;16.15;;;9.73;;
50429;SDS011;36359;41.556;-8.418;2023-01-05T16:13:27;13.30;;;8.45;;
50429;SDS011;36359;41.556;-8.418;2023-01-05T16:16:02;17.33;;;10.15;;
50429;SDS011;36359;41.556;-8.418;2023-01-05T16:18:32;14.00;;;10.20;;
50429;SDS011;36359;41.556;-8.418;2023-01-05T16:23:58;17.92;;;9.18;;
50429;SDS011;36359;41.556;-8.418;2023-01-05T16:26:28;15.25;;;9.10;;
50429;SDS011;36359;41.556;-8.418;2023-01-05T16:28:55;15.90;;;10.45;;
50429;SDS011;36359;41.556;-8.418;2023-01-05T16:31:23;12.93;;;8.43;;
50429;SDS011;36359;41.556;-8.418;2023-01-05T16:39:36;21.23;;;13.70;;
50429;SDS011;36359;41.556;-8.418;2023-01-05T16:42:04;20.92;;;13.98;;
50429;SDS011;36359;41.556;-8.418;2023-01-05T16:44:59;19.85;;;12.60;;
50429;SDS011;36359;41.556;-8.418;2023-01-05T16:47:58;22.08;;;13.43;;
50429;SDS011;36359;41.556;-8.418;2023-01-05T16:55:32;22.98;;;13.48;;
50429;SDS011;36359;41.556;-8.418;2023-01-05T16:58:00;23.05;;;14.07;;
50429;SDS011;36359;41.556;-8.418;2023-01-05T17:02:53;23.23;;;15.98;;
50429;SDS011;36359;41.556;-8.418;2023-01-05T17:05:21;24.95;;;15.00;;
50429;SDS011;36359;41.556;-8.418;2023-01-05T17:07:50;22.70;;;15.75;;
50429;SDS011;36359;41.556;-8.418;2023-01-05T17:10:24;23.55;;;15.07;;
50429;SDS011;36359;41.556;-8.418;2023-01-05T17:12:54;30.77;;;17.52;;
50429;SDS011;36359;41.556;-8.418;2023-01-05T17:15:23;24.42;;;16.50;;
50429;SDS011;36359;41.556;-8.418;2023-01-05T17:17:52;23.98;;;13.50;;
50429;SDS011;36359;41.556;-8.418;2023-01-05T17:20:20;21.20;;;13.98;;
50429;SDS011;36359;41.556;-8.418;2023-01-05T17:22:47;21.23;;;13.13;;
50429;SDS011;36359;41.556;-8.418;2023-01-05T17:25:13;20.60;;;13.32;;
50429;SDS011;36359;41.556;-8.418;2023-01-05T17:27:39;20.35;;;12.43;;
50429;SDS011;36359;41.556;-8.418;2023-01-05T17:30:12;22.67;;;13.80;;
50429;SDS011;36359;41.556;-8.418;2023-01-05T17:32:43;25.58;;;16.90;;
50429;SDS011;36359;41.556;-8.418;2023-01-05T17:35:09;24.83;;;17.52;;
50429;SDS011;36359;41.556;-8.418;2023-01-05T17:37:35;25.38;;;17.92;;
50429;SDS011;36359;41.556;-8.418;2023-01-05T17:40:01;29.77;;;19.35;;
50429;SDS011;36359;41.556;-8.418;2023-01-05T17:42:27;32.03;;;19.85;;
50429;SDS011;36359;41.556;-8.418;2023-01-05T17:47:53;26.13;;;16.13;;
50429;SDS011;36359;41.556;-8.418;2023-01-05T17:50:21;20.75;;;13.23;;
50429;SDS011;36359;41.556;-8.418;2023-01-05T17:52:48;26.05;;;16.55;;
50429;SDS011;36359;41.556;-8.418;2023-01-05T17:55:14;27.08;;;17.08;;
50429;SDS011;36359;41.556;-8.418;2023-01-05T17:57:40;24.92;;;17.38;;
50429;SDS011;36359;41.556;-8.418;2023-01-05T18:00:07;24.02;;;15.93;;
50429;SDS011;36359;41.556;-8.418;2023-01-05T18:02:35;24.23;;;15.80;;
50429;SDS011;36359;41.556;-8.418;2023-01-05T18:05:01;27.63;;;16.88;;